createdAt,value
2018-09-13T00:00:56.688Z,15.46
2018-09-13T00:01:56.623Z,15.50
2018-09-13T00:02:56.609Z,15.36
2018-09-13T00:03:56.605Z,15.50
2018-09-13T00:04:56.573Z,15.35
2018-09-13T00:05:56.644Z,15.35
2018-09-13T00:06:56.556Z,15.39
2018-09-13T00:07:56.550Z,15.38
2018-09-13T00:08:56.556Z,15.36
2018-09-13T00:09:56.520Z,15.38
2018-09-13T00:10:56.507Z,15.39
2018-09-13T00:11:56.500Z,15.38
2018-09-13T00:12:56.484Z,15.36
2018-09-13T00:13:56.465Z,15.39
2018-09-13T00:14:56.453Z,15.36
2018-09-13T00:15:56.454Z,15.36
2018-09-13T00:16:56.512Z,15.32
2018-09-13T00:17:56.421Z,15.38
2018-09-13T00:18:56.411Z,15.49
2018-09-13T00:19:56.433Z,15.54
2018-09-13T00:20:56.397Z,15.50
2018-09-13T00:21:56.372Z,15.56
2018-09-13T00:22:56.361Z,15.57
2018-09-13T00:23:56.351Z,15.59
2018-09-13T00:24:56.368Z,15.51
2018-09-13T00:25:56.316Z,15.35
2018-09-13T00:26:56.377Z,15.29
2018-09-13T00:27:56.301Z,15.31
2018-09-13T00:28:56.292Z,15.32
2018-09-13T00:29:56.273Z,15.25
2018-09-13T00:30:56.254Z,15.13
2018-09-13T00:31:56.254Z,15.20
2018-09-13T00:32:56.285Z,15.21
2018-09-13T00:33:56.234Z,15.25
2018-09-13T00:34:56.215Z,15.20
2018-09-13T00:35:56.196Z,15.28
2018-09-13T00:36:56.199Z,15.21
2018-09-13T00:37:56.180Z,15.20
2018-09-13T00:38:56.173Z,15.32
2018-09-13T00:39:56.161Z,15.34
2018-09-13T00:40:56.136Z,15.32
2018-09-13T00:41:56.136Z,15.44
2018-09-13T00:42:56.124Z,15.31
2018-09-13T00:43:56.141Z,15.31
2018-09-13T00:44:56.091Z,15.31
2018-09-13T00:45:56.082Z,15.23
2018-09-13T00:46:56.071Z,15.23
2018-09-13T00:47:56.050Z,15.29
2018-09-13T00:48:56.076Z,15.28
2018-09-13T00:49:56.061Z,15.32
2018-09-13T00:50:56.018Z,15.31
2018-09-13T00:51:56.003Z,15.31
2018-09-13T00:52:56.005Z,15.35
2018-09-13T00:53:55.989Z,15.34
2018-09-13T00:54:56.010Z,15.28
2018-09-13T00:55:55.964Z,15.31
2018-09-13T00:56:55.960Z,15.21
2018-09-13T00:57:55.976Z,15.17
2018-09-13T00:58:55.976Z,15.19
2018-09-13T00:59:55.917Z,15.14
2018-09-13T01:00:55.904Z,15.14
2018-09-13T01:01:55.892Z,15.02
2018-09-13T01:02:55.929Z,14.99
2018-09-13T01:03:55.871Z,15.02
2018-09-13T01:04:55.859Z,15.10
2018-09-13T01:05:55.841Z,15.07
2018-09-13T01:06:55.832Z,15.06
2018-09-13T01:07:55.814Z,15.01
2018-09-13T01:08:55.839Z,15.01
2018-09-13T01:09:55.790Z,15.14
2018-09-13T01:10:55.785Z,15.16
2018-09-13T01:11:55.776Z,15.19
2018-09-13T01:12:55.748Z,15.13
2018-09-13T01:13:55.776Z,15.20
2018-09-13T01:14:55.727Z,15.20
2018-09-13T01:15:55.710Z,15.19
2018-09-13T01:16:55.697Z,15.21
2018-09-13T01:17:55.698Z,15.19
2018-09-13T01:18:55.690Z,15.21
2018-09-13T01:19:55.673Z,15.17
2018-09-13T01:20:55.659Z,15.16
2018-09-13T01:21:55.649Z,15.21
2018-09-13T01:22:55.670Z,15.19
2018-09-13T01:23:55.660Z,15.14
2018-09-13T01:24:55.625Z,15.13
2018-09-13T01:25:55.601Z,15.14
2018-09-13T01:26:55.593Z,15.09
2018-09-13T01:27:55.580Z,15.13
2018-09-13T01:28:55.588Z,15.11
2018-09-13T01:29:55.538Z,15.10
2018-09-13T01:30:55.554Z,15.13
2018-09-13T01:31:55.516Z,15.11
2018-09-13T01:32:55.506Z,15.16
2018-09-13T01:33:55.494Z,15.14
2018-09-13T01:34:55.494Z,15.09
2018-09-13T01:35:55.531Z,14.99
2018-09-13T01:36:55.462Z,15.07
2018-09-13T01:37:55.440Z,14.99
2018-09-13T01:38:55.442Z,14.99
2018-09-13T01:39:55.425Z,15.02
2018-09-13T01:40:55.408Z,14.98
2018-09-13T01:41:55.425Z,14.99
2018-09-13T01:42:55.386Z,15.09
2018-09-13T01:43:55.378Z,15.10
2018-09-13T01:44:55.365Z,15.10
2018-09-13T01:45:55.347Z,15.02
2018-09-13T01:46:55.373Z,15.16
2018-09-13T01:47:55.331Z,15.13
2018-09-13T01:48:55.319Z,15.10
2018-09-13T01:49:55.305Z,15.17
2018-09-13T01:50:55.289Z,15.14
2018-09-13T01:51:55.307Z,15.16
2018-09-13T01:52:55.265Z,15.09
2018-09-13T01:53:55.324Z,15.16
2018-09-13T01:54:55.244Z,15.19
2018-09-13T01:55:55.234Z,15.16
2018-09-13T01:56:55.219Z,15.21
2018-09-13T01:57:55.207Z,15.11
2018-09-13T01:58:55.185Z,15.14
2018-09-13T01:59:55.209Z,15.02
2018-09-13T02:00:55.200Z,15.11
2018-09-13T02:01:55.166Z,15.09
2018-09-13T02:02:55.147Z,15.09
2018-09-13T02:03:55.123Z,15.11
2018-09-13T02:04:55.111Z,15.06
2018-09-13T02:05:55.228Z,14.98
2018-09-13T02:06:55.107Z,15.07
2018-09-13T02:07:55.077Z,15.02
2018-09-13T02:08:55.066Z,15.07
2018-09-13T02:09:55.065Z,15.02
2018-09-13T02:10:55.044Z,14.96
2018-09-13T02:11:55.069Z,14.98
2018-09-13T02:12:55.012Z,14.81
2018-09-13T02:13:55.015Z,14.91
2018-09-13T02:14:54.997Z,14.81
2018-09-13T02:15:55.010Z,14.83
2018-09-13T02:16:54.981Z,14.88
2018-09-13T02:17:54.951Z,14.91
2018-09-13T02:18:54.949Z,14.94
2018-09-13T02:19:54.957Z,14.94
2018-09-13T02:20:54.924Z,14.98
2018-09-13T02:21:54.968Z,14.95
2018-09-13T02:22:54.897Z,14.96
2018-09-13T02:23:54.881Z,14.84
2018-09-13T02:24:54.877Z,14.86
2018-09-13T02:25:54.869Z,14.89
2018-09-13T02:26:54.847Z,14.91
2018-09-13T02:27:54.844Z,14.95
2018-09-13T02:28:54.831Z,14.99
2018-09-13T02:29:54.814Z,15.10
2018-09-13T02:30:54.800Z,14.99
2018-09-13T02:31:54.789Z,14.98
2018-09-13T02:32:54.810Z,15.14
2018-09-13T02:33:54.751Z,15.10
2018-09-13T02:34:54.747Z,15.14
2018-09-13T02:35:54.729Z,15.19
2018-09-13T02:36:54.717Z,15.20
2018-09-13T02:37:54.766Z,15.23
2018-09-13T02:38:54.695Z,15.23
2018-09-13T02:39:54.693Z,15.25
2018-09-13T02:40:54.682Z,15.23
2018-09-13T02:41:54.668Z,15.25
2018-09-13T02:42:54.654Z,15.20
2018-09-13T02:43:54.658Z,15.29
2018-09-13T02:44:54.631Z,15.20
2018-09-13T02:45:54.620Z,15.25
2018-09-13T02:46:54.594Z,15.31
2018-09-13T02:47:54.593Z,15.28
2018-09-13T02:48:54.622Z,15.27
2018-09-13T02:49:54.566Z,15.34
2018-09-13T02:50:54.550Z,15.28
2018-09-13T02:51:54.533Z,15.25
2018-09-13T02:52:54.531Z,15.21
2018-09-13T02:53:54.515Z,15.21
2018-09-13T02:54:54.504Z,15.32
2018-09-13T02:55:54.525Z,15.27
2018-09-13T02:56:54.483Z,15.28
2018-09-13T02:57:54.472Z,15.09
2018-09-13T02:58:54.463Z,15.17
2018-09-13T02:59:54.448Z,15.19
2018-09-13T03:00:54.468Z,15.13
2018-09-13T03:01:54.422Z,15.11
2018-09-13T03:02:54.414Z,15.03
2018-09-13T03:03:54.400Z,15.14
2018-09-13T03:04:54.379Z,15.10
2018-09-13T03:05:54.370Z,15.13
2018-09-13T03:06:54.386Z,15.06
2018-09-13T03:07:54.347Z,15.07
2018-09-13T03:08:54.338Z,15.09
2018-09-13T03:09:54.321Z,15.03
2018-09-13T03:10:54.307Z,15.11
2018-09-13T03:11:54.307Z,15.13
2018-09-13T03:12:54.288Z,15.14
2018-09-13T03:13:54.274Z,15.13
2018-09-13T03:14:54.271Z,15.14
2018-09-13T03:15:54.251Z,15.13
2018-09-13T03:16:54.267Z,15.19
2018-09-13T03:17:54.223Z,15.13
2018-09-13T03:18:54.239Z,15.19
2018-09-13T03:19:54.194Z,15.20
2018-09-13T03:20:54.184Z,15.20
2018-09-13T03:21:54.175Z,15.20
2018-09-13T03:22:54.193Z,15.27
2018-09-13T03:23:54.148Z,15.28
2018-09-13T03:24:54.132Z,15.19
2018-09-13T03:25:54.121Z,15.13
2018-09-13T03:26:54.117Z,15.20
2018-09-13T03:27:54.159Z,15.17
2018-09-13T03:28:54.083Z,15.23
2018-09-13T03:29:54.077Z,15.23
2018-09-13T03:30:54.066Z,15.17
2018-09-13T03:31:54.060Z,15.20
2018-09-13T03:32:54.034Z,15.11
2018-09-13T03:33:54.064Z,15.17
2018-09-13T03:34:54.019Z,15.16
2018-09-13T03:35:53.999Z,15.11
2018-09-13T03:36:53.992Z,15.21
2018-09-13T03:37:53.981Z,15.16
2018-09-13T03:38:53.985Z,15.16
2018-09-13T03:39:53.945Z,15.13
2018-09-13T03:40:53.939Z,15.17
2018-09-13T03:41:53.950Z,15.02
2018-09-13T03:42:53.922Z,15.02
2018-09-13T03:43:53.931Z,15.03
2018-09-13T03:44:53.881Z,14.99
2018-09-13T03:45:53.904Z,15.09
2018-09-13T03:46:53.870Z,15.09
2018-09-13T03:47:53.858Z,15.02
2018-09-13T03:48:53.862Z,15.11
2018-09-13T03:49:53.829Z,15.01
2018-09-13T03:50:53.852Z,14.99
2018-09-13T03:51:53.801Z,14.95
2018-09-13T03:52:53.793Z,15.03
2018-09-13T03:53:53.825Z,15.16
2018-09-13T03:54:53.767Z,15.06
2018-09-13T03:55:53.753Z,14.98
2018-09-13T03:56:53.748Z,15.10
2018-09-13T03:57:53.733Z,15.01
2018-09-13T03:58:53.764Z,15.01
2018-09-13T03:59:53.713Z,15.06
2018-09-13T04:00:53.688Z,15.02
2018-09-13T04:01:53.696Z,15.13
2018-09-13T04:02:53.695Z,15.07
2018-09-13T04:03:53.665Z,15.13
2018-09-13T04:04:53.766Z,15.07
2018-09-13T04:05:53.635Z,15.03
2018-09-13T04:06:53.618Z,14.99
2018-09-13T04:07:53.616Z,15.02
2018-09-13T04:08:53.600Z,15.01
2018-09-13T04:09:53.580Z,14.98
2018-09-13T04:10:53.755Z,15.02
2018-09-13T04:11:53.556Z,14.99
2018-09-13T04:12:53.556Z,15.02
2018-09-13T04:13:53.537Z,14.98
2018-09-13T04:14:53.521Z,14.99
2018-09-13T04:15:53.507Z,14.98
2018-09-13T04:16:53.500Z,15.06
2018-09-13T04:17:53.489Z,15.09
2018-09-13T04:18:53.508Z,14.98
2018-09-13T04:19:53.460Z,15.01
2018-09-13T04:20:53.445Z,15.13
2018-09-13T04:21:53.439Z,15.16
2018-09-13T04:22:53.424Z,15.14
2018-09-13T04:23:53.407Z,15.19
2018-09-13T04:24:53.401Z,15.11
2018-09-13T04:25:53.426Z,15.17
2018-09-13T04:26:53.367Z,15.17
2018-09-13T04:27:53.367Z,15.11
2018-09-13T04:28:53.363Z,15.11
2018-09-13T04:29:53.329Z,15.19
2018-09-13T04:30:53.328Z,15.09
2018-09-13T04:31:53.309Z,15.13
2018-09-13T04:32:53.379Z,15.07
2018-09-13T04:33:53.288Z,15.13
2018-09-13T04:34:53.280Z,15.07
2018-09-13T04:35:53.393Z,15.09
2018-09-13T04:36:53.257Z,14.98
2018-09-13T04:37:53.271Z,14.96
2018-09-13T04:38:53.227Z,15.13
2018-09-13T04:39:53.214Z,15.16
2018-09-13T04:40:53.208Z,15.13
2018-09-13T04:41:53.189Z,15.14
2018-09-13T04:42:53.183Z,15.11
2018-09-13T04:43:53.171Z,14.99
2018-09-13T04:44:53.154Z,14.95
2018-09-13T04:45:53.135Z,14.91
2018-09-13T04:46:53.133Z,14.83
2018-09-13T04:47:53.187Z,14.99
2018-09-13T04:48:53.117Z,14.80
2018-09-13T04:49:53.096Z,14.83
2018-09-13T04:50:53.084Z,14.81
2018-09-13T04:51:53.080Z,14.89
2018-09-13T04:52:53.049Z,14.95
2018-09-13T04:53:53.162Z,14.83
2018-09-13T04:54:53.039Z,14.88
2018-09-13T04:55:53.012Z,14.88
2018-09-13T04:56:52.998Z,14.88
2018-09-13T04:57:52.997Z,14.88
2018-09-13T04:58:52.996Z,14.84
2018-09-13T04:59:52.958Z,14.83
2018-09-13T05:00:52.959Z,14.83
2018-09-13T05:01:52.953Z,14.78
2018-09-13T05:02:52.927Z,14.81
2018-09-13T05:03:52.985Z,14.84
2018-09-13T05:04:52.904Z,14.77
2018-09-13T05:05:52.894Z,14.75
2018-09-13T05:06:52.884Z,14.69
2018-09-13T05:07:52.869Z,14.62
2018-09-13T05:08:52.859Z,14.73
2018-09-13T05:09:52.883Z,14.73
2018-09-13T05:10:52.836Z,14.72
2018-09-13T05:11:52.822Z,14.72
2018-09-13T05:12:52.811Z,14.73
2018-09-13T05:13:52.799Z,14.73
2018-09-13T05:14:52.808Z,14.77
2018-09-13T05:15:52.769Z,14.68
2018-09-13T05:16:52.758Z,14.70
2018-09-13T05:17:52.754Z,14.61
2018-09-13T05:18:52.775Z,14.75
2018-09-13T05:19:52.721Z,14.69
2018-09-13T05:20:52.714Z,14.75
2018-09-13T05:21:52.696Z,14.77
2018-09-13T05:22:52.687Z,14.73
2018-09-13T05:23:52.707Z,14.72
2018-09-13T05:24:52.690Z,14.73
2018-09-13T05:25:52.635Z,14.73
2018-09-13T05:26:52.635Z,14.73
2018-09-13T05:27:52.624Z,14.70
2018-09-13T05:28:52.608Z,14.64
2018-09-13T05:29:52.622Z,14.61
2018-09-13T05:30:52.588Z,14.72
2018-09-13T05:31:52.568Z,14.75
2018-09-13T05:32:52.565Z,14.75
2018-09-13T05:33:52.542Z,14.72
2018-09-13T05:34:52.588Z,14.68
2018-09-13T05:35:52.522Z,14.68
2018-09-13T05:36:52.508Z,14.75
2018-09-13T05:37:52.491Z,14.75
2018-09-13T05:38:52.505Z,14.69
2018-09-13T05:39:52.569Z,14.77
2018-09-13T05:40:52.468Z,14.73
2018-09-13T05:41:52.445Z,14.72
2018-09-13T05:42:52.437Z,14.73
2018-09-13T05:43:52.431Z,14.70
2018-09-13T05:44:52.407Z,14.69
2018-09-13T05:45:52.463Z,14.60
2018-09-13T05:46:52.380Z,14.61
2018-09-13T05:47:52.362Z,14.65
2018-09-13T05:48:52.360Z,14.62
2018-09-13T05:49:52.336Z,14.61
2018-09-13T05:50:52.337Z,14.64
2018-09-13T05:51:52.350Z,14.68
2018-09-13T05:52:52.315Z,14.64
2018-09-13T05:53:52.297Z,14.68
2018-09-13T05:54:52.293Z,14.73
2018-09-13T05:55:52.305Z,14.65
2018-09-13T05:56:52.266Z,14.72
2018-09-13T05:57:52.253Z,14.72
2018-09-13T05:58:52.229Z,14.68
2018-09-13T05:59:52.223Z,14.65
2018-09-13T06:00:52.223Z,14.72
2018-09-13T06:01:52.188Z,14.65
2018-09-13T06:02:52.186Z,14.75
2018-09-13T06:03:52.172Z,14.78
2018-09-13T06:04:52.165Z,14.75
2018-09-13T06:05:52.195Z,14.69
2018-09-13T06:06:52.128Z,14.72
2018-09-13T06:07:52.142Z,14.72
2018-09-13T06:08:52.115Z,14.73
2018-09-13T06:09:52.103Z,14.72
2018-09-13T06:10:52.084Z,14.73
2018-09-13T06:11:52.099Z,14.72
2018-09-13T06:12:52.063Z,14.65
2018-09-13T06:13:52.083Z,14.68
2018-09-13T06:14:52.048Z,14.73
2018-09-13T06:15:52.015Z,14.77
2018-09-13T06:16:52.016Z,14.75
2018-09-13T06:17:52.009Z,14.75
2018-09-13T06:18:52.261Z,14.77
2018-09-13T06:19:52.068Z,14.77
2018-09-13T06:20:51.969Z,14.77
2018-09-13T06:21:51.959Z,14.77
2018-09-13T06:22:51.929Z,14.77
2018-09-13T06:23:51.928Z,14.80
2018-09-13T06:24:51.974Z,14.83
2018-09-13T06:25:51.897Z,14.77
2018-09-13T06:26:51.891Z,14.81
2018-09-13T06:27:51.870Z,14.81
2018-09-13T06:28:51.859Z,14.68
2018-09-13T06:29:51.919Z,14.81
2018-09-13T06:30:51.835Z,14.81
2018-09-13T06:31:51.821Z,14.86
2018-09-13T06:32:51.811Z,14.88
2018-09-13T06:33:51.801Z,14.80
2018-09-13T06:34:51.788Z,14.80
2018-09-13T06:35:51.782Z,14.83
2018-09-13T06:36:51.767Z,14.78
2018-09-13T06:37:51.757Z,14.78
2018-09-13T06:38:51.730Z,14.88
2018-09-13T06:39:51.728Z,14.86
2018-09-13T06:40:51.770Z,14.94
2018-09-13T06:41:51.701Z,14.91
2018-09-13T06:42:51.720Z,14.88
2018-09-13T06:43:51.677Z,15.03
2018-09-13T06:44:51.674Z,14.88
2018-09-13T06:45:51.650Z,14.98
2018-09-13T06:46:51.839Z,14.94
2018-09-13T06:47:51.633Z,14.95
2018-09-13T06:48:51.612Z,14.99
2018-09-13T06:49:51.602Z,14.99
2018-09-13T06:50:51.599Z,14.98
2018-09-13T06:51:51.576Z,14.94
2018-09-13T06:52:51.570Z,14.94
2018-09-13T06:53:51.822Z,14.94
2018-09-13T06:54:51.541Z,14.94
2018-09-13T06:55:51.526Z,14.94
2018-09-13T06:56:51.528Z,14.95
2018-09-13T06:57:51.494Z,14.96
2018-09-13T06:58:51.489Z,14.96
2018-09-13T06:59:51.487Z,14.94
2018-09-13T07:00:51.472Z,14.98
2018-09-13T07:01:51.495Z,14.95
2018-09-13T07:02:51.459Z,14.98
2018-09-13T07:03:51.437Z,14.98
2018-09-13T07:04:51.420Z,14.98
2018-09-13T07:05:51.461Z,14.98
2018-09-13T07:06:51.393Z,15.03
2018-09-13T07:07:51.372Z,15.01
2018-09-13T07:08:51.365Z,14.99
2018-09-13T07:09:51.359Z,14.99
2018-09-13T07:10:51.352Z,14.98
2018-09-13T07:11:51.363Z,15.06
2018-09-13T07:12:51.318Z,15.10
2018-09-13T07:13:51.311Z,14.99
2018-09-13T07:14:51.293Z,15.01
2018-09-13T07:15:51.328Z,15.07
2018-09-13T07:16:51.275Z,15.03
2018-09-13T07:17:51.262Z,15.16
2018-09-13T07:18:51.238Z,15.17
2018-09-13T07:19:51.237Z,15.19
2018-09-13T07:20:51.221Z,15.17
2018-09-13T07:21:51.255Z,15.17
2018-09-13T07:22:51.204Z,15.19
2018-09-13T07:23:51.192Z,15.20
2018-09-13T07:24:51.179Z,15.19
2018-09-13T07:25:51.169Z,15.19
2018-09-13T07:26:51.178Z,15.11
2018-09-13T07:27:51.143Z,15.19
2018-09-13T07:28:51.133Z,15.21
2018-09-13T07:29:51.121Z,15.16
2018-09-13T07:30:51.176Z,15.17
2018-09-13T07:31:51.140Z,15.21
2018-09-13T07:32:51.084Z,15.25
2018-09-13T07:33:51.076Z,15.20
2018-09-13T07:34:51.048Z,15.19
2018-09-13T07:35:51.034Z,15.23
2018-09-13T07:36:51.082Z,15.21
2018-09-13T07:37:51.029Z,15.19
2018-09-13T07:38:51.011Z,15.20
2018-09-13T07:39:50.989Z,15.25
2018-09-13T07:40:50.989Z,15.23
2018-09-13T07:41:51.003Z,15.20
2018-09-13T07:42:50.993Z,15.23
2018-09-13T07:43:51.021Z,15.27
2018-09-13T07:44:50.934Z,15.25
2018-09-13T07:45:50.928Z,15.20
2018-09-13T07:46:50.909Z,15.29
2018-09-13T07:47:50.899Z,15.20
2018-09-13T07:48:50.888Z,15.14
2018-09-13T07:49:51.052Z,15.29
2018-09-13T07:50:50.898Z,15.27
2018-09-13T07:51:50.881Z,15.31
2018-09-13T07:52:50.837Z,15.28
2018-09-13T07:53:50.835Z,15.23
2018-09-13T07:54:50.827Z,15.32
2018-09-13T07:55:50.870Z,15.32
2018-09-13T07:56:50.795Z,15.32
2018-09-13T07:57:50.785Z,15.32
2018-09-13T07:58:50.768Z,15.31
2018-09-13T07:59:50.794Z,15.32
2018-09-13T08:00:50.738Z,15.28
2018-09-13T08:01:50.740Z,15.35
2018-09-13T08:02:50.719Z,15.29
2018-09-13T08:03:50.701Z,15.31
2018-09-13T08:04:50.701Z,15.32
2018-09-13T08:05:50.696Z,15.28
2018-09-13T08:06:50.672Z,15.38
2018-09-13T08:07:50.729Z,15.32
2018-09-13T08:08:50.646Z,15.32
2018-09-13T08:09:50.647Z,15.35
2018-09-13T08:10:50.625Z,15.44
2018-09-13T08:11:50.664Z,15.38
2018-09-13T08:12:50.611Z,15.38
2018-09-13T08:13:50.641Z,15.36
2018-09-13T08:14:50.588Z,15.38
2018-09-13T08:15:50.631Z,15.36
2018-09-13T08:16:50.548Z,15.41
2018-09-13T08:17:50.542Z,15.38
2018-09-13T08:18:50.532Z,15.36
2018-09-13T08:19:50.525Z,15.41
2018-09-13T08:20:50.517Z,15.36
2018-09-13T08:21:50.601Z,15.41
2018-09-13T08:22:50.485Z,15.31
2018-09-13T08:23:50.469Z,15.34
2018-09-13T08:24:50.495Z,15.29
2018-09-13T08:25:50.452Z,15.32
2018-09-13T08:26:50.462Z,15.32
2018-09-13T08:27:50.425Z,15.35
2018-09-13T08:28:50.410Z,15.43
2018-09-13T08:29:50.411Z,15.46
2018-09-13T08:30:50.656Z,15.43
2018-09-13T08:31:50.381Z,15.34
2018-09-13T08:32:50.367Z,15.43
2018-09-13T08:33:50.359Z,15.46
2018-09-13T08:34:50.423Z,15.47
2018-09-13T08:35:50.331Z,15.53
2018-09-13T08:36:50.336Z,15.49
2018-09-13T08:37:50.308Z,15.51
2018-09-13T08:38:50.299Z,15.53
2018-09-13T08:39:50.365Z,15.50
2018-09-13T08:40:50.273Z,15.50
2018-09-13T08:41:50.331Z,15.57
2018-09-13T08:42:50.247Z,15.51
2018-09-13T08:43:50.243Z,15.51
2018-09-13T08:44:50.235Z,15.54
2018-09-13T08:45:50.217Z,15.64
2018-09-13T08:46:50.207Z,15.67
2018-09-13T08:47:50.227Z,15.67
2018-09-13T08:48:50.246Z,15.64
2018-09-13T08:49:50.177Z,15.62
2018-09-13T08:50:50.164Z,15.64
2018-09-13T08:51:50.138Z,15.74
2018-09-13T08:52:50.140Z,15.74
2018-09-13T08:53:50.128Z,15.74
2018-09-13T08:54:50.116Z,15.76
2018-09-13T08:55:50.107Z,15.72
2018-09-13T08:56:50.098Z,15.71
2018-09-13T08:57:50.084Z,15.80
2018-09-13T08:58:50.068Z,15.78
2018-09-13T08:59:50.080Z,15.65
2018-09-13T09:00:50.109Z,15.60
2018-09-13T09:01:50.032Z,15.64
2018-09-13T09:02:50.016Z,15.74
2018-09-13T09:03:50.017Z,15.76
2018-09-13T09:04:50.043Z,15.65
2018-09-13T09:05:49.987Z,15.68
2018-09-13T09:06:49.980Z,15.69
2018-09-13T09:07:49.967Z,15.72
2018-09-13T09:08:49.956Z,15.82
2018-09-13T09:09:49.936Z,15.82
2018-09-13T09:10:50.193Z,15.74
2018-09-13T09:11:49.959Z,15.80
2018-09-13T09:12:49.909Z,15.84
2018-09-13T09:13:49.896Z,15.90
2018-09-13T09:14:49.889Z,15.84
2018-09-13T09:15:49.873Z,15.86
2018-09-13T09:16:49.877Z,15.87
2018-09-13T09:17:49.855Z,15.92
2018-09-13T09:18:49.848Z,15.96
2018-09-13T09:19:49.837Z,15.94
2018-09-13T09:20:49.829Z,15.94
2018-09-13T09:21:49.890Z,15.97
2018-09-13T09:22:49.815Z,16.00
2018-09-13T09:23:49.791Z,15.96
2018-09-13T09:24:49.789Z,16.02
2018-09-13T09:25:49.768Z,16.01
2018-09-13T09:26:49.764Z,16.05
2018-09-13T09:27:49.805Z,16.07
2018-09-13T09:28:49.753Z,15.94
2018-09-13T09:29:49.735Z,16.02
2018-09-13T09:30:49.722Z,15.97
2018-09-13T09:31:49.703Z,15.97
2018-09-13T09:32:49.711Z,16.07
2018-09-13T09:33:49.687Z,16.05
2018-09-13T09:34:49.762Z,16.09
2018-09-13T09:35:49.666Z,16.07
2018-09-13T09:36:49.649Z,16.15
2018-09-13T09:37:49.652Z,16.14
2018-09-13T09:38:49.669Z,16.11
2018-09-13T09:39:49.672Z,16.24
2018-09-13T09:40:49.610Z,16.17
2018-09-13T09:41:49.592Z,16.23
2018-09-13T09:42:49.577Z,16.24
2018-09-13T09:43:49.568Z,16.24
2018-09-13T09:44:49.610Z,16.28
2018-09-13T09:45:49.559Z,16.25
2018-09-13T09:46:49.533Z,16.38
2018-09-13T09:47:49.530Z,16.33
2018-09-13T09:48:49.527Z,16.31
2018-09-13T09:49:49.517Z,16.39
2018-09-13T09:50:49.540Z,16.34
2018-09-13T09:51:49.508Z,16.31
2018-09-13T09:52:49.479Z,16.34
2018-09-13T09:53:49.479Z,16.31
2018-09-13T09:54:49.458Z,16.35
2018-09-13T09:55:49.484Z,16.27
2018-09-13T09:56:49.434Z,16.31
2018-09-13T09:57:49.443Z,16.41
2018-09-13T09:58:49.419Z,16.41
2018-09-13T09:59:49.407Z,16.48
2018-09-13T10:00:49.413Z,16.45
2018-09-13T10:01:49.379Z,16.41
2018-09-13T10:02:49.366Z,16.46
2018-09-13T10:03:49.356Z,16.38
2018-09-13T10:04:49.349Z,16.46
2018-09-13T10:05:49.350Z,16.41
2018-09-13T10:06:49.320Z,16.34
2018-09-13T10:07:49.321Z,16.39
2018-09-13T10:08:49.340Z,16.31
2018-09-13T10:09:49.388Z,16.33
2018-09-13T10:10:49.317Z,16.33
2018-09-13T10:11:49.274Z,16.49
2018-09-13T10:12:49.262Z,16.42
2018-09-13T10:13:49.245Z,16.41
2018-09-13T10:14:49.246Z,16.38
2018-09-13T10:15:49.264Z,16.42
2018-09-13T10:16:49.215Z,16.49
2018-09-13T10:17:49.210Z,16.43
2018-09-13T10:18:49.201Z,16.48
2018-09-13T10:19:49.189Z,16.56
2018-09-13T10:20:49.205Z,16.60
2018-09-13T10:21:49.173Z,16.56
2018-09-13T10:22:49.191Z,16.60
2018-09-13T10:23:49.142Z,16.61
2018-09-13T10:24:49.134Z,16.53
2018-09-13T10:25:49.126Z,16.56
2018-09-13T10:26:49.150Z,16.58
2018-09-13T10:27:49.097Z,16.56
2018-09-13T10:28:49.100Z,16.53
2018-09-13T10:29:49.179Z,16.58
2018-09-13T10:30:49.084Z,16.60
2018-09-13T10:31:49.082Z,16.56
2018-09-13T10:32:49.050Z,16.52
2018-09-13T10:33:49.037Z,16.61
2018-09-13T10:34:49.024Z,16.56
2018-09-13T10:35:49.023Z,16.53
2018-09-13T10:36:49.039Z,16.60
2018-09-13T10:37:48.990Z,16.67
2018-09-13T10:38:48.990Z,16.76
2018-09-13T10:39:48.979Z,16.81
2018-09-13T10:40:48.966Z,16.78
2018-09-13T10:41:48.977Z,16.94
2018-09-13T10:42:48.952Z,17.00
2018-09-13T10:43:48.927Z,16.83
2018-09-13T10:44:48.916Z,16.83
2018-09-13T10:45:48.906Z,16.85
2018-09-13T10:46:48.930Z,16.85
2018-09-13T10:47:56.487Z,16.88
2018-09-13T10:48:48.898Z,16.79
2018-09-13T10:49:48.865Z,16.75
2018-09-13T10:50:48.865Z,16.81
2018-09-13T10:51:48.886Z,16.75
2018-09-13T10:52:48.851Z,16.85
2018-09-13T10:53:48.866Z,16.89
2018-09-13T10:54:48.822Z,16.97
2018-09-13T10:55:48.825Z,16.93
2018-09-13T10:56:48.805Z,16.93
2018-09-13T10:57:48.801Z,16.82
2018-09-13T10:58:48.842Z,16.88
2018-09-13T10:59:48.774Z,16.71
2018-09-13T11:00:48.764Z,16.88
2018-09-13T11:01:48.748Z,16.86
2018-09-13T11:02:48.750Z,16.88
2018-09-13T11:03:48.726Z,16.75
2018-09-13T11:04:48.777Z,16.79
2018-09-13T11:05:48.705Z,16.86
2018-09-13T11:06:48.689Z,16.86
2018-09-13T11:07:48.687Z,16.98
2018-09-13T11:08:48.680Z,16.98
2018-09-13T11:09:48.674Z,16.96
2018-09-13T11:10:48.866Z,17.00
2018-09-13T11:11:48.644Z,17.03
2018-09-13T11:12:48.641Z,17.01
2018-09-13T11:13:48.624Z,17.08
2018-09-13T11:14:48.618Z,17.19
2018-09-13T11:15:48.601Z,17.15
2018-09-13T11:16:48.600Z,17.08
2018-09-13T11:17:48.590Z,17.18
2018-09-13T11:18:48.578Z,17.16
2018-09-13T11:19:48.563Z,17.16
2018-09-13T11:20:48.548Z,17.22
2018-09-13T11:21:48.675Z,17.22
2018-09-13T11:22:48.531Z,17.26
2018-09-13T11:23:48.524Z,17.31
2018-09-13T11:24:48.518Z,17.36
2018-09-13T11:25:48.502Z,17.31
2018-09-13T11:26:48.543Z,17.34
2018-09-13T11:27:48.488Z,17.31
2018-09-13T11:28:48.471Z,17.34
2018-09-13T11:29:48.467Z,17.34
2018-09-13T11:30:48.452Z,17.36
2018-09-13T11:31:48.441Z,17.34
2018-09-13T11:32:48.454Z,17.23
2018-09-13T11:33:48.702Z,17.26
2018-09-13T11:34:48.417Z,17.34
2018-09-13T11:35:48.404Z,17.44
2018-09-13T11:36:48.394Z,17.41
2018-09-13T11:37:48.387Z,17.49
2018-09-13T11:38:48.372Z,17.51
2018-09-13T11:39:48.457Z,17.56
2018-09-13T11:40:48.654Z,17.55
2018-09-13T11:41:48.341Z,17.58
2018-09-13T11:42:48.339Z,17.51
2018-09-13T11:43:48.333Z,17.51
2018-09-13T11:44:48.381Z,17.59
2018-09-13T11:45:48.306Z,17.62
2018-09-13T11:46:48.296Z,17.52
2018-09-13T11:47:48.283Z,17.55
2018-09-13T11:48:48.270Z,17.56
2018-09-13T11:49:48.264Z,17.56
2018-09-13T11:50:48.260Z,17.48
2018-09-13T11:51:48.245Z,17.48
2018-09-13T11:52:48.231Z,17.40
2018-09-13T11:53:48.227Z,17.34
2018-09-13T11:54:48.211Z,17.36
2018-09-13T11:55:48.211Z,17.26
2018-09-13T11:56:48.194Z,17.34
2018-09-13T11:57:48.192Z,17.26
2018-09-13T11:58:48.178Z,17.40
2018-09-13T11:59:48.175Z,17.41
2018-09-13T12:00:48.187Z,17.41
2018-09-13T12:01:48.191Z,17.43
2018-09-13T12:02:48.137Z,17.38
2018-09-13T12:03:48.131Z,17.40
2018-09-13T12:04:48.111Z,17.38
2018-09-13T12:05:48.145Z,17.51
2018-09-13T12:06:48.126Z,17.40
2018-09-13T12:07:48.090Z,17.52
2018-09-13T12:08:48.092Z,17.48
2018-09-13T12:09:48.067Z,17.52
2018-09-13T12:10:48.061Z,17.40
2018-09-13T12:11:48.077Z,17.51
2018-09-13T12:12:48.048Z,17.48
2018-09-13T12:13:48.041Z,17.46
2018-09-13T12:14:48.012Z,17.51
2018-09-13T12:15:48.002Z,17.40
2018-09-13T12:16:48.003Z,17.46
2018-09-13T12:17:48.141Z,17.46
2018-09-13T12:18:48.016Z,17.43
2018-09-13T12:19:47.965Z,17.46
2018-09-13T12:20:47.963Z,17.41
2018-09-13T12:21:47.951Z,17.44
2018-09-13T12:22:47.976Z,17.40
2018-09-13T12:23:48.021Z,17.52
2018-09-13T12:24:47.926Z,17.46
2018-09-13T12:25:47.904Z,17.54
2018-09-13T12:26:47.905Z,17.33
2018-09-13T12:27:47.901Z,17.31
2018-09-13T12:28:47.877Z,17.36
2018-09-13T12:29:47.917Z,17.55
2018-09-13T12:30:47.863Z,17.49
2018-09-13T12:31:47.846Z,17.41
2018-09-13T12:32:47.841Z,17.49
2018-09-13T12:33:47.918Z,17.54
2018-09-13T12:34:47.839Z,17.58
2018-09-13T12:35:47.831Z,17.70
2018-09-13T12:36:47.808Z,17.70
2018-09-13T12:37:47.802Z,17.72
2018-09-13T12:38:47.803Z,17.75
2018-09-13T12:39:47.828Z,17.82
2018-09-13T12:40:47.769Z,17.87
2018-09-13T12:41:47.758Z,17.90
2018-09-13T12:42:47.746Z,17.87
2018-09-13T12:43:47.742Z,17.84
2018-09-13T12:44:47.733Z,17.87
2018-09-13T12:45:47.711Z,17.95
2018-09-13T12:46:47.702Z,17.86
2018-09-13T12:47:47.705Z,17.82
2018-09-13T12:48:47.693Z,17.86
2018-09-13T12:49:47.727Z,17.87
2018-09-13T12:50:47.712Z,17.93
2018-09-13T12:51:47.660Z,17.90
2018-09-13T12:52:47.651Z,17.90